Time;durP1;ratioP1;P1;durP2;ratioP2;P2;SDS_P1;SDS_P2;PMS_P1;PMS_P2;Temp;Humidity;BMP_temperature;BMP_pressure;BME280_temperature;BME280_humidity;BME280_pressure;Samples;Min_cycle;Max_cycle;Signal;HPM_P1;HPM_P2
2021/10/06 00:00:24;;;;;;;4.75;1.27;;;12.10;99.90;;;;;;5020452;28;20387;-68
2021/10/06 00:02:51;;;;;;;5.47;1.45;;;12.10;99.90;;;;;;5020783;28;20026;-68
2021/10/06 00:05:19;;;;;;;4.97;2.13;;;12.10;99.90;;;;;;5021614;28;20018;-68
2021/10/06 00:07:47;;;;;;;8.40;2.70;;;12.10;99.90;;;;;;5021773;28;20030;-68
2021/10/06 00:10:14;;;;;;;3.28;1.20;;;12.10;99.90;;;;;;5020973;28;20049;-68
2021/10/06 00:12:42;;;;;;;6.53;1.50;;;12.10;99.90;;;;;;5021471;28;20116;-68
2021/10/06 00:15:12;;;;;;;4.63;1.52;;;12.00;99.90;;;;;;5021414;28;20102;-68
2021/10/06 00:17:40;;;;;;;4.60;2.22;;;11.90;99.90;;;;;;5021048;28;20076;-68
2021/10/06 00:20:10;;;;;;;4.13;1.15;;;11.90;99.90;;;;;;5020870;28;20026;-68
2021/10/06 00:22:38;;;;;;;5.10;1.30;;;11.90;99.90;;;;;;5020629;28;20393;-68
2021/10/06 00:25:07;;;;;;;7.80;1.42;;;11.80;99.90;;;;;;5019876;28;20053;-68
2021/10/06 00:27:35;;;;;;;3.47;1.73;;;11.80;99.90;;;;;;5027829;28;20080;-68
2021/10/06 00:30:02;;;;;;;3.78;1.80;;;11.80;99.90;;;;;;5039496;28;20025;-68
2021/10/06 00:32:29;;;;;;;6.72;2.22;;;11.70;99.90;;;;;;5039946;28;20021;-68
2021/10/06 00:34:57;;;;;;;6.32;1.45;;;11.70;99.90;;;;;;5039387;28;20036;-68
2021/10/06 00:37:24;;;;;;;4.93;1.65;;;11.70;99.90;;;;;;5039517;28;20083;-68
2021/10/06 00:39:52;;;;;;;4.32;2.53;;;11.80;99.90;;;;;;5039863;28;20057;-68
2021/10/06 00:42:20;;;;;;;6.78;1.23;;;11.80;99.90;;;;;;5039206;28;20034;-68
2021/10/06 00:44:47;;;;;;;7.10;1.38;;;11.80;99.90;;;;;;5039490;28;20495;-68
2021/10/06 00:47:15;;;;;;;3.08;1.17;;;11.90;99.90;;;;;;5040260;28;20033;-68
2021/10/06 00:49:43;;;;;;;2.65;1.00;;;11.90;99.90;;;;;;5040016;28;20418;-68
2021/10/06 00:52:14;;;;;;;8.63;1.23;;;12.00;99.90;;;;;;5040249;28;20429;-68
2021/10/06 00:54:43;;;;;;;4.22;1.40;;;12.00;99.90;;;;;;5039966;28;20436;-68
2021/10/06 00:57:11;;;;;;;5.97;1.75;;;12.00;99.90;;;;;;5040083;28;20112;-68
2021/10/06 00:59:39;;;;;;;4.13;1.48;;;12.00;99.90;;;;;;5039910;28;20025;-68
2021/10/06 01:02:06;;;;;;;6.00;1.98;;;12.00;99.90;;;;;;5040255;28;20029;-68
2021/10/06 01:04:35;;;;;;;3.40;1.50;;;12.10;99.90;;;;;;5039870;28;20018;-68
2021/10/06 01:07:02;;;;;;;8.55;1.48;;;12.10;99.90;;;;;;5039525;28;20041;-68
2021/10/06 01:09:30;;;;;;;3.83;1.08;;;12.10;99.90;;;;;;5039229;28;20018;-68
2021/10/06 01:11:59;;;;;;;4.55;1.67;;;12.00;99.90;;;;;;5038742;28;20017;-68
2021/10/06 01:14:27;;;;;;;4.20;1.55;;;12.10;99.90;;;;;;5038668;28;20483;-68
2021/10/06 01:16:54;;;;;;;4.05;1.50;;;12.00;99.90;;;;;;5039078;28;20023;-68
2021/10/06 01:19:24;;;;;;;4.32;1.55;;;12.00;99.90;;;;;;5038498;28;20076;-68
2021/10/06 01:21:53;;;;;;;5.00;1.92;;;11.90;99.90;;;;;;5038705;28;20017;-68
2021/10/06 01:24:21;;;;;;;4.50;1.23;;;11.90;99.90;;;;;;5038447;28;20080;-68
2021/10/06 01:26:48;;;;;;;7.68;1.75;;;11.80;99.90;;;;;;5038473;28;20104;-68
2021/10/06 01:29:17;;;;;;;3.15;1.70;;;11.70;99.90;;;;;;5021709;28;20025;-68
2021/10/06 01:31:46;;;;;;;7.07;1.70;;;11.60;99.90;;;;;;5039533;28;20045;-68
2021/10/06 01:34:13;;;;;;;4.97;1.45;;;11.50;99.90;;;;;;5039675;28;20029;-68
2021/10/06 01:36:40;;;;;;;6.53;2.53;;;11.40;99.90;;;;;;5039162;28;20025;-68
2021/10/06 01:39:09;;;;;;;7.82;2.47;;;11.40;99.90;;;;;;5039639;28;20029;-68
2021/10/06 01:41:36;;;;;;;10.50;2.88;;;11.20;99.90;;;;;;5039318;28;20026;-68
2021/10/06 01:44:05;;;;;;;6.78;2.40;;;11.10;99.90;;;;;;5039035;28;20436;-68
2021/10/06 01:46:33;;;;;;;6.30;2.20;;;11.10;99.90;;;;;;5038267;28;20406;-68
2021/10/06 01:49:00;;;;;;;6.10;2.40;;;11.10;99.90;;;;;;5038466;28;20025;-68
2021/10/06 01:51:28;;;;;;;8.15;2.45;;;11.00;99.90;;;;;;5038670;28;20026;-68
2021/10/06 01:53:55;;;;;;;4.53;2.42;;;11.00;99.90;;;;;;5038459;28;20103;-68
2021/10/06 01:56:23;;;;;;;8.15;2.92;;;11.00;99.90;;;;;;5037929;28;20028;-68
2021/10/06 01:58:51;;;;;;;8.88;2.78;;;11.00;99.90;;;;;;5038357;28;20109;-68
2021/10/06 02:01:19;;;;;;;7.43;2.78;;;11.00;99.90;;;;;;5037788;28;20036;-68
2021/10/06 02:03:46;;;;;;;6.35;2.65;;;11.00;99.90;;;;;;5037602;28;20526;-68
2021/10/06 02:06:14;;;;;;;5.70;2.53;;;11.00;99.90;;;;;;5020104;28;20063;-68
2021/10/06 02:08:42;;;;;;;6.65;2.50;;;11.10;99.90;;;;;;5020864;28;20108;-68
2021/10/06 02:11:09;;;;;;;5.32;2.50;;;11.10;99.90;;;;;;5038689;28;20031;-68
2021/10/06 02:13:36;;;;;;;7.82;2.72;;;11.20;99.90;;;;;;5038505;28;20053;-68
2021/10/06 02:16:04;;;;;;;11.48;3.38;;;11.20;99.90;;;;;;5020845;28;20033;-68
2021/10/06 02:18:31;;;;;;;5.80;2.90;;;11.30;99.90;;;;;;5038361;28;20028;-68
2021/10/06 02:20:59;;;;;;;5.95;2.60;;;11.30;99.90;;;;;;5037771;28;20053;-68
2021/10/06 02:23:27;;;;;;;8.30;2.45;;;11.40;99.90;;;;;;5038486;28;20104;-68
2021/10/06 02:25:54;;;;;;;7.32;2.90;;;11.40;99.90;;;;;;5038295;28;20057;-68
2021/10/06 02:28:22;;;;;;;7.38;2.55;;;11.40;99.90;;;;;;5037107;28;20069;-68
2021/10/06 02:30:49;;;;;;;7.90;3.38;;;11.50;99.90;;;;;;5037246;28;20022;-68
2021/10/06 02:33:17;;;;;;;8.00;2.72;;;11.50;99.90;;;;;;5037620;28;20029;-68
2021/10/06 02:35:44;;;;;;;7.32;2.85;;;11.50;99.90;;;;;;5019620;28;20044;-68
2021/10/06 02:38:12;;;;;;;5.18;2.40;;;11.50;99.90;;;;;;5037093;28;20021;-68
2021/10/06 02:40:39;;;;;;;8.57;2.58;;;11.50;99.90;;;;;;5036989;28;20022;-68
2021/10/06 02:43:07;;;;;;;5.03;2.15;;;11.50;99.90;;;;;;5037553;28;20066;-68
2021/10/06 02:45:34;;;;;;;8.80;2.53;;;11.50;99.90;;;;;;5037521;28;20029;-68
2021/10/06 02:48:02;;;;;;;7.85;2.80;;;11.50;99.90;;;;;;5036886;28;20018;-68
2021/10/06 02:50:29;;;;;;;5.18;2.55;;;11.50;99.90;;;;;;5038208;28;20075;-68
2021/10/06 02:52:57;;;;;;;6.95;2.45;;;11.50;99.90;;;;;;5038455;28;20025;-68
2021/10/06 02:55:25;;;;;;;4.80;2.22;;;11.50;99.90;;;;;;5038228;28;20021;-68
2021/10/06 02:57:52;;;;;;;4.55;2.28;;;11.50;99.90;;;;;;5038265;28;20025;-68
2021/10/06 03:00:19;;;;;;;6.47;2.30;;;11.50;99.90;;;;;;5038171;28;20112;-68
2021/10/06 03:02:48;;;;;;;3.25;2.00;;;11.50;99.90;;;;;;5037708;28;20032;-68
2021/10/06 03:05:18;;;;;;;5.10;2.30;;;11.50;99.90;;;;;;5037385;28;20028;-68
2021/10/06 03:07:45;;;;;;;6.55;2.75;;;11.60;99.90;;;;;;5037408;28;20041;-68
2021/10/06 03:10:13;;;;;;;4.90;2.13;;;11.60;99.90;;;;;;5018985;28;20478;-68
2021/10/06 03:12:41;;;;;;;6.40;1.88;;;11.60;99.90;;;;;;5036740;28;20033;-68
2021/10/06 03:15:10;;;;;;;6.03;1.90;;;11.60;99.90;;;;;;5036565;28;20321;-68
2021/10/06 03:17:38;;;;;;;5.43;1.90;;;11.60;99.90;;;;;;5036515;28;20059;-68
2021/10/06 03:20:07;;;;;;;7.18;2.60;;;11.50;99.90;;;;;;5036517;28;20048;-68
2021/10/06 03:22:35;;;;;;;4.10;1.95;;;11.50;99.90;;;;;;5036580;28;20032;-68
2021/10/06 03:25:05;;;;;;;8.10;2.30;;;11.50;99.90;;;;;;5036974;28;20013;-68
2021/10/06 03:27:33;;;;;;;4.45;1.83;;;11.50;99.90;;;;;;5036431;28;20053;-68
2021/10/06 03:30:01;;;;;;;4.07;2.08;;;11.50;99.90;;;;;;5036576;28;20163;-68
2021/10/06 03:32:29;;;;;;;8.05;2.10;;;11.50;99.90;;;;;;5038000;28;20436;-68
2021/10/06 03:34:56;;;;;;;7.22;2.65;;;11.50;99.90;;;;;;5041471;28;20043;-68
2021/10/06 03:37:24;;;;;;;7.13;2.00;;;11.40;99.90;;;;;;5041408;28;20145;-68
2021/10/06 03:39:51;;;;;;;8.25;2.53;;;11.40;99.90;;;;;;5041413;28;20040;-68
2021/10/06 03:42:19;;;;;;;5.68;2.70;;;11.30;99.90;;;;;;5041407;28;20021;-68
2021/10/06 03:44:48;;;;;;;8.20;1.98;;;11.20;99.90;;;;;;5023720;28;20033;-68
2021/10/06 03:47:15;;;;;;;4.97;1.98;;;11.10;99.90;;;;;;5041262;28;20041;-68
2021/10/06 03:49:43;;;;;;;5.53;2.28;;;11.10;99.90;;;;;;5041435;28;20309;-68
2021/10/06 03:52:11;;;;;;;4.53;2.40;;;10.90;99.90;;;;;;5040920;28;20108;-68
2021/10/06 03:54:39;;;;;;;5.75;1.95;;;10.90;99.90;;;;;;5040150;28;20028;-68
2021/10/06 03:57:06;;;;;;;4.85;2.13;;;10.80;99.90;;;;;;5040692;28;20128;-68
2021/10/06 03:59:33;;;;;;;8.57;2.35;;;10.80;99.90;;;;;;5040085;28;20075;-68
2021/10/06 04:02:00;;;;;;;5.57;2.00;;;10.80;99.90;;;;;;5039993;28;20428;-68
2021/10/06 04:04:28;;;;;;;10.20;1.75;;;10.80;99.90;;;;;;5022341;28;20417;-68
2021/10/06 04:06:55;;;;;;;4.95;1.90;;;10.80;99.90;;;;;;5040502;28;20029;-68
2021/10/06 04:09:22;;;;;;;7.60;1.98;;;10.80;99.90;;;;;;5022366;28;20028;-68
2021/10/06 04:11:50;;;;;;;4.32;2.05;;;10.80;99.90;;;;;;5022780;28;20029;-68
2021/10/06 04:14:17;;;;;;;6.78;2.10;;;10.90;99.90;;;;;;5041220;28;20025;-68
2021/10/06 04:16:45;;;;;;;4.88;1.80;;;10.90;99.90;;;;;;5023262;28;20029;-68
2021/10/06 04:19:12;;;;;;;7.22;2.03;;;10.90;99.90;;;;;;5022969;28;20036;-68
2021/10/06 04:21:39;;;;;;;5.22;1.67;;;11.00;99.90;;;;;;5022941;28;20026;-68
2021/10/06 04:24:07;;;;;;;6.88;1.50;;;11.00;99.90;;;;;;5040559;28;20030;-68
2021/10/06 04:26:35;;;;;;;4.53;1.42;;;11.00;99.90;;;;;;5040653;28;20013;-68
2021/10/06 04:29:04;;;;;;;3.03;1.52;;;11.00;99.90;;;;;;5040188;28;20380;-68
2021/10/06 04:31:31;;;;;;;3.10;1.58;;;11.00;99.90;;;;;;5039998;28;20022;-68
2021/10/06 04:33:59;;;;;;;4.10;1.80;;;11.00;99.90;;;;;;5039361;28;20052;-68
2021/10/06 04:36:26;;;;;;;4.05;1.42;;;11.00;99.90;;;;;;5039560;28;20039;-68
2021/10/06 04:38:53;;;;;;;4.32;1.35;;;11.00;99.90;;;;;;5039386;28;20025;-68
2021/10/06 04:41:20;;;;;;;7.75;1.67;;;11.00;99.90;;;;;;5039227;28;20317;-68
2021/10/06 04:43:48;;;;;;;2.30;1.25;;;10.90;99.90;;;;;;5021275;28;20028;-68
2021/10/06 04:46:16;;;;;;;10.45;1.42;;;10.90;99.90;;;;;;5039393;28;20026;-68
2021/10/06 04:48:44;;;;;;;6.05;1.50;;;10.80;99.90;;;;;;5021554;28;20037;-68
2021/10/06 04:51:11;;;;;;;2.28;1.23;;;10.80;99.90;;;;;;5039155;28;20425;-68
2021/10/06 04:53:40;;;;;;;3.67;1.60;;;10.70;99.90;;;;;;5039403;28;20029;-68
2021/10/06 04:56:07;;;;;;;5.50;1.77;;;10.70;99.90;;;;;;5040108;28;20326;-67
2021/10/06 04:58:35;;;;;;;5.82;1.40;;;10.60;99.90;;;;;;5039980;28;20437;-68
2021/10/06 05:01:03;;;;;;;3.97;1.20;;;10.60;99.90;;;;;;5022246;28;20027;-68
2021/10/06 05:03:31;;;;;;;5.07;1.98;;;10.60;99.90;;;;;;5039785;28;20441;-68
2021/10/06 05:05:59;;;;;;;7.50;2.15;;;10.70;99.90;;;;;;5039874;28;20455;-68
2021/10/06 05:08:27;;;;;;;3.08;1.15;;;10.70;99.90;;;;;;5039970;28;20032;-68
2021/10/06 05:10:55;;;;;;;3.25;1.13;;;10.80;99.90;;;;;;5040257;28;20067;-68
2021/10/06 05:13:22;;;;;;;5.78;1.10;;;10.80;99.90;;;;;;5039822;28;20024;-68
2021/10/06 05:15:50;;;;;;;3.80;1.52;;;10.80;99.90;;;;;;5021077;28;20117;-68
2021/10/06 05:18:17;;;;;;;4.35;1.02;;;10.90;99.90;;;;;;5020987;28;20025;-73
2021/10/06 05:20:44;;;;;;;2.40;1.08;;;10.90;99.90;;;;;;5038894;28;20041;-68
2021/10/06 05:23:12;;;;;;;2.38;0.88;;;10.90;99.90;;;;;;5039104;28;20108;-68
2021/10/06 05:25:40;;;;;;;3.70;0.80;;;10.90;99.90;;;;;;5038384;28;20025;-67
2021/10/06 05:28:07;;;;;;;5.60;1.00;;;11.00;99.90;;;;;;5017565;28;20125;-68
2021/10/06 05:30:35;;;;;;;4.35;1.77;;;10.90;99.90;;;;;;5018537;28;20026;-71
2021/10/06 05:33:02;;;;;;;2.40;0.80;;;11.00;99.90;;;;;;5018532;28;20026;-71
2021/10/06 05:35:30;;;;;;;3.30;0.88;;;11.00;99.90;;;;;;5019504;28;20030;-71
2021/10/06 05:37:58;;;;;;;4.00;0.90;;;11.00;99.90;;;;;;5019241;28;20068;-68
2021/10/06 05:40:26;;;;;;;2.15;0.85;;;11.00;99.90;;;;;;5019351;28;20026;-68
2021/10/06 05:42:54;;;;;;;3.65;0.93;;;11.00;99.90;;;;;;5018180;28;20083;-68
2021/10/06 05:45:22;;;;;;;5.15;0.70;;;11.00;99.90;;;;;;5019263;28;20041;-68
2021/10/06 05:47:49;;;;;;;1.77;0.80;;;11.00;99.90;;;;;;5019769;28;20064;-68
2021/10/06 05:50:18;;;;;;;4.43;1.42;;;11.00;99.90;;;;;;5019174;28;20057;-68
2021/10/06 05:52:45;;;;;;;3.85;0.80;;;11.00;99.90;;;;;;5019206;28;20036;-68
2021/10/06 05:55:12;;;;;;;3.33;0.70;;;11.00;99.90;;;;;;5016506;28;20079;-68
2021/10/06 05:57:41;;;;;;;3.85;0.82;;;11.00;99.90;;;;;;5017226;28;20030;-68
2021/10/06 06:00:09;;;;;;;3.03;0.88;;;11.00;99.90;;;;;;5017988;28;20561;-68
2021/10/06 06:02:46;;;;;;;6.50;1.33;;;11.00;99.90;;;;;;5017936;28;20030;-67
2021/10/06 06:05:15;;;;;;;3.83;0.80;;;11.00;99.90;;;;;;5018017;28;20041;-68
2021/10/06 06:07:43;;;;;;;5.28;0.95;;;11.00;99.90;;;;;;5017081;28;20026;-68
2021/10/06 06:10:12;;;;;;;2.28;0.68;;;11.00;99.90;;;;;;5017859;28;20014;-67
2021/10/06 06:12:46;;;;;;;2.42;1.08;;;10.90;99.90;;;;;;5018080;28;20029;-67
2021/10/06 06:15:14;;;;;;;1.70;0.60;;;11.00;99.90;;;;;;5017787;28;20030;-67
2021/10/06 06:17:42;;;;;;;4.72;0.80;;;11.00;99.90;;;;;;5019074;28;20056;-68
2021/10/06 06:20:12;;;;;;;3.00;0.60;;;11.00;99.90;;;;;;5019115;28;20133;-67
2021/10/06 06:22:40;;;;;;;2.70;0.85;;;11.10;99.90;;;;;;5018579;28;20050;-68
2021/10/06 06:25:10;;;;;;;2.90;0.77;;;11.10;99.90;;;;;;5018575;28;20107;-68
2021/10/06 06:27:37;;;;;;;3.38;1.25;;;11.10;99.90;;;;;;5025761;28;20387;-68
2021/10/06 06:30:07;;;;;;;5.20;1.00;;;11.20;99.90;;;;;;5038169;28;20022;-69
2021/10/06 06:32:34;;;;;;;3.40;1.17;;;11.30;99.90;;;;;;5038554;28;20017;-68
2021/10/06 06:35:02;;;;;;;6.97;0.70;;;11.30;99.90;;;;;;5038245;28;20052;-67
2021/10/06 06:37:29;;;;;;;4.13;0.88;;;11.40;99.90;;;;;;5037221;28;20456;-68
2021/10/06 06:39:57;;;;;;;5.85;0.85;;;11.40;99.90;;;;;;5037336;28;20358;-68
2021/10/06 06:42:25;;;;;;;3.13;0.80;;;11.50;99.90;;;;;;5019477;28;20116;-68
2021/10/06 06:44:56;;;;;;;3.28;0.73;;;11.60;99.90;;;;;;5036929;28;20053;-68
2021/10/06 06:47:23;;;;;;;1.02;0.70;;;11.60;99.90;;;;;;5037207;28;20044;-68
2021/10/06 06:49:52;;;;;;;3.70;0.70;;;11.60;99.90;;;;;;5037480;28;20029;-68
2021/10/06 06:52:20;;;;;;;15.55;1.05;;;11.60;99.90;;;;;;5037392;28;20034;-68
2021/10/06 06:54:48;;;;;;;4.38;0.85;;;11.70;99.90;;;;;;5036856;28;20021;-68
2021/10/06 06:57:15;;;;;;;3.63;1.10;;;11.70;99.90;;;;;;5019276;28;20041;-68
2021/10/06 06:59:42;;;;;;;3.45;0.60;;;11.70;99.90;;;;;;5020331;28;20021;-68
2021/10/06 07:02:13;;;;;;;2.35;0.70;;;11.80;99.90;;;;;;5037531;28;20028;-68
2021/10/06 07:04:41;;;;;;;3.35;0.93;;;11.80;99.90;;;;;;5038393;28;20109;-68
2021/10/06 07:07:13;;;;;;;2.38;0.80;;;11.80;99.90;;;;;;5038010;28;20369;-68
2021/10/06 07:09:49;;;;;;;6.38;1.23;;;11.90;99.90;;;;;;5038028;28;20028;-68
2021/10/06 07:12:18;;;;;;;1.92;0.70;;;11.90;99.90;;;;;;5037494;28;20481;-68
2021/10/06 07:14:46;;;;;;;5.80;0.75;;;12.00;99.90;;;;;;5038084;28;20025;-68
2021/10/06 07:17:14;;;;;;;5.63;0.90;;;12.00;99.90;;;;;;5037124;28;20034;-68
2021/10/06 07:19:41;;;;;;;5.40;0.98;;;12.00;99.90;;;;;;5036587;28;20128;-69
2021/10/06 07:22:09;;;;;;;3.70;0.60;;;12.00;99.90;;;;;;5018827;28;20484;-68
2021/10/06 07:24:36;;;;;;;2.97;1.00;;;12.00;99.90;;;;;;5037051;28;20101;-68
2021/10/06 07:27:06;;;;;;;5.40;0.90;;;12.10;99.90;;;;;;5018593;28;20219;-69
2021/10/06 07:29:34;;;;;;;3.33;0.70;;;12.20;99.90;;;;;;5037128;28;20021;-68
2021/10/06 07:32:01;;;;;;;4.25;1.02;;;12.20;99.90;;;;;;5036671;28;20033;-68
2021/10/06 07:34:29;;;;;;;3.08;0.70;;;12.30;99.90;;;;;;5036287;28;20025;-69
2021/10/06 07:36:57;;;;;;;1.77;0.90;;;12.30;99.90;;;;;;5036298;28;20109;-69
2021/10/06 07:39:24;;;;;;;4.38;0.85;;;12.40;99.90;;;;;;5036728;28;20022;-68
2021/10/06 07:41:54;;;;;;;8.25;1.00;;;12.50;99.90;;;;;;5037050;28;20030;-68
2021/10/06 07:44:21;;;;;;;3.70;0.98;;;12.50;99.90;;;;;;5037223;28;20049;-68
2021/10/06 07:46:48;;;;;;;2.58;0.65;;;12.50;99.90;;;;;;5037695;28;20018;-68
2021/10/06 07:49:16;;;;;;;3.80;1.00;;;12.50;99.90;;;;;;5037284;28;20024;-69
2021/10/06 07:51:43;;;;;;;3.80;0.80;;;12.40;99.90;;;;;;5037195;28;20021;-68
2021/10/06 07:54:11;;;;;;;5.45;0.95;;;12.40;99.90;;;;;;5037715;28;20077;-69
2021/10/06 07:56:39;;;;;;;3.90;0.63;;;12.50;99.90;;;;;;5019578;28;20030;-69
2021/10/06 07:59:07;;;;;;;2.17;0.73;;;12.60;99.90;;;;;;5036788;28;20025;-69
2021/10/06 08:01:34;;;;;;;5.38;0.70;;;12.70;99.90;;;;;;5018604;28;20040;-69
2021/10/06 08:04:02;;;;;;;1.83;0.50;;;12.90;99.90;;;;;;5018957;28;20116;-72
2021/10/06 08:06:30;;;;;;;5.57;1.20;;;13.00;99.60;;;;;;5036824;28;20105;-69
2021/10/06 08:08:57;;;;;;;3.13;0.80;;;13.10;99.30;;;;;;5036098;28;20017;-68
2021/10/06 08:11:25;;;;;;;3.80;0.65;;;13.20;99.10;;;;;;5036167;28;20341;-70
2021/10/06 08:13:53;;;;;;;4.63;0.80;;;13.30;98.90;;;;;;5037659;28;20100;-69
2021/10/06 08:16:21;;;;;;;8.35;1.13;;;13.30;98.10;;;;;;5018570;28;20445;-68
2021/10/06 08:18:49;;;;;;;2.95;0.80;;;13.40;98.10;;;;;;5021509;28;20037;-69
2021/10/06 08:21:17;;;;;;;2.10;0.47;;;13.40;98.00;;;;;;5040583;28;20053;-69
2021/10/06 08:23:44;;;;;;;5.43;0.60;;;13.40;98.20;;;;;;5040813;28;20452;-69
2021/10/06 08:26:13;;;;;;;4.28;0.82;;;13.40;97.80;;;;;;5040528;28;20017;-69
2021/10/06 08:28:40;;;;;;;10.40;5.07;;;13.50;97.70;;;;;;5019547;28;20046;-69
2021/10/06 08:31:08;;;;;;;5.22;0.65;;;13.60;97.60;;;;;;5020745;28;20465;-69
2021/10/06 08:33:36;;;;;;;1.45;0.70;;;13.70;97.10;;;;;;5020803;28;20479;-69
2021/10/06 08:36:03;;;;;;;2.97;0.70;;;13.70;96.90;;;;;;5020629;28;20037;-69
2021/10/06 08:38:33;;;;;;;3.13;0.73;;;13.80;97.00;;;;;;5019184;28;20029;-70
2021/10/06 08:41:04;;;;;;;3.97;0.70;;;13.90;96.90;;;;;;5020030;28;20088;-70
2021/10/06 08:43:33;;;;;;;5.65;0.50;;;14.00;96.50;;;;;;5018540;28;20109;-70
2021/10/06 08:46:00;;;;;;;6.13;0.80;;;14.00;96.20;;;;;;5019728;28;20040;-70
2021/10/06 08:48:28;;;;;;;1.98;0.50;;;14.10;96.30;;;;;;5021306;28;20308;-70
2021/10/06 08:50:55;;;;;;;4.72;0.70;;;14.20;96.80;;;;;;5019731;28;20411;-70
2021/10/06 08:53:23;;;;;;;4.18;0.40;;;14.20;96.20;;;;;;5019411;28;20036;-69
2021/10/06 08:55:50;;;;;;;2.50;0.77;;;14.30;95.60;;;;;;5019815;28;20080;-69
2021/10/06 08:58:17;;;;;;;3.22;0.60;;;14.30;95.80;;;;;;5019385;28;20062;-69
2021/10/06 09:00:55;;;;;;;3.45;0.60;;;14.30;95.60;;;;;;5019694;28;20390;-68
2021/10/06 09:03:36;;;;;;;1.98;0.52;;;14.30;95.20;;;;;;5020098;28;20080;-69
2021/10/06 09:06:07;;;;;;;2.35;0.35;;;14.30;95.40;;;;;;5019006;28;20028;-69
2021/10/06 09:08:36;;;;;;;3.47;0.40;;;14.30;95.40;;;;;;5020555;28;20462;-69
2021/10/06 09:11:06;;;;;;;5.72;0.95;;;14.30;95.80;;;;;;5020658;28;20026;-69
2021/10/06 09:13:36;;;;;;;2.65;0.73;;;14.20;95.80;;;;;;5020020;28;20026;-69
2021/10/06 09:16:05;;;;;;;3.30;0.50;;;14.10;95.90;;;;;;5020156;28;20101;-70
2021/10/06 09:18:34;;;;;;;4.72;0.70;;;14.10;95.80;;;;;;5019581;28;20030;-69
2021/10/06 09:21:07;;;;;;;3.63;0.80;;;14.00;95.90;;;;;;5018765;28;20029;-69
2021/10/06 09:23:42;;;;;;;3.67;0.77;;;13.90;96.00;;;;;;5019018;28;20322;-69
2021/10/06 09:26:12;;;;;;;6.28;0.98;;;13.90;96.30;;;;;;5017710;28;20022;-69
2021/10/06 09:28:42;;;;;;;3.25;1.05;;;13.90;96.40;;;;;;5034089;28;20042;-69
2021/10/06 09:31:13;;;;;;;3.05;0.60;;;13.80;96.30;;;;;;5037176;28;20062;-69
2021/10/06 09:33:49;;;;;;;3.92;0.68;;;13.80;96.50;;;;;;5038485;28;20014;-69
2021/10/06 09:36:30;;;;;;;2.65;0.50;;;13.80;96.30;;;;;;5038923;28;20021;-69
2021/10/06 09:39:16;;;;;;;6.60;0.88;;;13.70;96.40;;;;;;5020748;28;20029;-69
2021/10/06 09:41:50;;;;;;;5.38;1.73;;;13.70;96.40;;;;;;5038770;28;20033;-69
2021/10/06 09:44:25;;;;;;;4.78;0.60;;;13.80;96.40;;;;;;5039431;28;20030;-69
2021/10/06 09:46:56;;;;;;;2.13;0.60;;;13.80;96.50;;;;;;5039667;28;20112;-69
2021/10/06 09:49:35;;;;;;;1.58;0.40;;;13.80;96.40;;;;;;5038973;28;20025;-69
2021/10/06 09:52:27;;;;;;;1.52;0.40;;;13.70;96.40;;;;;;5039186;28;20044;-69
2021/10/06 09:55:08;;;;;;;4.85;0.88;;;13.70;96.40;;;;;;5039455;28;20057;-69
2021/10/06 09:57:39;;;;;;;2.25;0.70;;;13.60;95.90;;;;;;5039337;28;20029;-68
2021/10/06 10:00:18;;;;;;;3.63;0.60;;;13.50;96.80;;;;;;5038622;28;20027;-68
2021/10/06 10:02:46;;;;;;;1.85;0.70;;;13.30;97.20;;;;;;5037759;28;20028;-69
2021/10/06 10:05:15;;;;;;;4.90;0.93;;;13.00;98.40;;;;;;5037969;28;20329;-70
2021/10/06 10:07:43;;;;;;;3.60;0.77;;;12.70;99.30;;;;;;5020517;28;20116;-68
2021/10/06 10:10:12;;;;;;;5.90;0.82;;;12.30;99.90;;;;;;5037671;28;20017;-69
2021/10/06 10:12:39;;;;;;;1.73;0.50;;;12.00;99.90;;;;;;5020030;28;20075;-69
2021/10/06 10:15:08;;;;;;;5.45;0.60;;;11.80;99.90;;;;;;5037594;28;20151;-69
2021/10/06 10:17:35;;;;;;;1.00;0.50;;;11.60;99.90;;;;;;5037806;28;20025;-69
2021/10/06 10:20:13;;;;;;;2.63;0.68;;;11.50;99.90;;;;;;5037549;28;20383;-69
2021/10/06 10:22:49;;;;;;;6.10;0.75;;;11.50;99.90;;;;;;5038093;28;20026;-69
2021/10/06 10:25:22;;;;;;;5.53;0.80;;;11.50;99.90;;;;;;5038672;28;20028;-69
2021/10/06 10:28:08;;;;;;;5.65;0.88;;;11.50;99.90;;;;;;5038511;28;20045;-69
2021/10/06 10:31:00;;;;;;;1.42;0.68;;;11.60;99.90;;;;;;5038749;28;20402;-69
2021/10/06 10:33:46;;;;;;;5.07;1.35;;;11.80;99.90;;;;;;5020373;28;20033;-68
2021/10/06 10:36:33;;;;;;;2.33;0.60;;;11.90;99.90;;;;;;5037918;28;20446;-69
2021/10/06 10:39:24;;;;;;;2.35;1.02;;;12.00;99.90;;;;;;5038751;28;20084;-69
2021/10/06 10:41:56;;;;;;;1.85;0.80;;;12.00;99.90;;;;;;5037250;28;20025;-69
2021/10/06 10:44:45;;;;;;;2.30;0.60;;;12.10;99.90;;;;;;5036998;28;20021;-69
2021/10/06 10:47:13;;;;;;;2.30;0.40;;;12.20;99.90;;;;;;5037113;28;20044;-69
2021/10/06 10:49:52;;;;;;;1.75;0.60;;;12.60;99.90;;;;;;5037043;28;20429;-69
2021/10/06 10:52:50;;;;;;;3.78;0.73;;;12.80;99.90;;;;;;5037709;28;20055;-69
2021/10/06 10:55:38;;;;;;;0.77;0.40;;;13.20;99.90;;;;;;5019264;28;20108;-69
2021/10/06 10:58:31;;;;;;;3.17;0.60;;;13.50;98.90;;;;;;5036902;28;20104;-69
2021/10/06 11:01:00;;;;;;;1.67;0.55;;;13.80;99.60;;;;;;5037041;28;20026;-69
2021/10/06 11:03:29;;;;;;;1.20;0.30;;;14.10;97.20;;;;;;5037011;28;20083;-69
2021/10/06 11:05:57;;;;;;;1.77;0.40;;;14.30;97.30;;;;;;5037758;28;20017;-69
2021/10/06 11:08:30;;;;;;;2.20;0.40;;;14.50;96.00;;;;;;5037692;28;20101;-69
2021/10/06 11:11:20;;;;;;;3.75;0.63;;;14.50;95.10;;;;;;5019949;28;20446;-69
2021/10/06 11:13:49;;;;;;;2.50;0.50;;;14.50;95.90;;;;;;5038019;28;20029;-69
2021/10/06 11:16:16;;;;;;;1.40;0.30;;;14.40;95.30;;;;;;5037460;28;20109;-69
2021/10/06 11:18:57;;;;;;;3.08;0.50;;;14.30;95.60;;;;;;5037759;28;20022;-69
2021/10/06 11:21:40;;;;;;;0.95;0.28;;;14.10;95.50;;;;;;5037302;28;20025;-69
2021/10/06 11:24:26;;;;;;;6.50;0.95;;;13.70;96.40;;;;;;5036492;28;20048;-69
2021/10/06 11:27:02;;;;;;;4.03;0.40;;;13.50;97.30;;;;;;5036495;28;20021;-69
2021/10/06 11:29:30;;;;;;;1.88;0.45;;;13.50;97.50;;;;;;5036949;28;20034;-69
2021/10/06 11:32:03;;;;;;;2.83;0.40;;;13.60;96.50;;;;;;5018844;28;20047;-69
2021/10/06 11:34:30;;;;;;;0.85;0.30;;;13.80;97.20;;;;;;5018716;28;20108;-69
2021/10/06 11:36:58;;;;;;;2.00;0.50;;;13.90;95.70;;;;;;5036910;28;20028;-69
2021/10/06 11:39:29;;;;;;;1.42;0.57;;;14.00;95.80;;;;;;5036236;28;20021;-69
2021/10/06 11:41:56;;;;;;;1.45;0.35;;;14.00;96.00;;;;;;5036608;28;20417;-69
2021/10/06 11:44:33;;;;;;;0.70;0.30;;;14.10;95.10;;;;;;5037128;28;20100;-69
2021/10/06 11:47:07;;;;;;;1.40;0.38;;;14.10;94.20;;;;;;5037714;28;20041;-69
2021/10/06 11:49:38;;;;;;;1.27;0.30;;;14.20;94.40;;;;;;5037050;28;20045;-69
2021/10/06 11:52:08;;;;;;;3.03;0.65;;;14.20;94.50;;;;;;5037556;28;20071;-69
2021/10/06 11:54:36;;;;;;;1.85;1.15;;;14.20;94.50;;;;;;5039854;28;20029;-69
2021/10/06 11:57:07;;;;;;;1.55;0.40;;;14.30;93.90;;;;;;5023571;28;20493;-69
2021/10/06 11:59:35;;;;;;;1.58;1.20;;;14.30;93.90;;;;;;5023436;28;20033;-69
2021/10/06 12:02:11;;;;;;;1.35;0.30;;;14.20;93.20;;;;;;5041608;28;20029;-69
2021/10/06 12:04:49;;;;;;;2.50;0.55;;;14.20;93.30;;;;;;5040192;28;20018;-69
2021/10/06 12:07:24;;;;;;;2.30;0.50;;;14.10;93.50;;;;;;5039982;28;20029;-69
2021/10/06 12:09:55;;;;;;;2.53;0.60;;;14.10;94.10;;;;;;5039956;28;20370;-69
2021/10/06 12:12:28;;;;;;;0.73;0.30;;;14.10;93.90;;;;;;5040623;28;20033;-69
2021/10/06 12:14:58;;;;;;;3.40;0.40;;;14.10;93.00;;;;;;5039740;28;20026;-69
2021/10/06 12:17:32;;;;;;;1.27;0.30;;;14.20;93.00;;;;;;5040313;28;20033;-69
2021/10/06 12:20:08;;;;;;;2.35;0.20;;;14.20;93.20;;;;;;5040566;28;20325;-69
2021/10/06 12:22:42;;;;;;;0.77;0.30;;;14.20;92.50;;;;;;5040428;28;20037;-69
2021/10/06 12:25:18;;;;;;;3.90;0.43;;;14.20;92.50;;;;;;5039984;28;20018;-70
2021/10/06 12:27:52;;;;;;;1.58;0.63;;;14.20;92.80;;;;;;5040508;28;20519;-69
2021/10/06 12:30:27;;;;;;;2.65;0.40;;;14.20;92.50;;;;;;5040515;28;20021;-68
2021/10/06 12:33:14;;;;;;;0.80;0.30;;;14.20;92.40;;;;;;5041169;28;20401;-70
2021/10/06 12:35:46;;;;;;;0.45;0.20;;;14.20;92.60;;;;;;5040408;28;20040;-70
2021/10/06 12:38:15;;;;;;;2.05;0.20;;;14.20;93.00;;;;;;5040628;28;20025;-69
2021/10/06 12:40:46;;;;;;;1.08;0.63;;;14.20;92.90;;;;;;5040306;28;20028;-69
2021/10/06 12:43:23;;;;;;;2.90;0.30;;;14.20;92.10;;;;;;5040159;28;20048;-69
2021/10/06 12:46:04;;;;;;;2.05;0.30;;;14.20;92.00;;;;;;5039760;28;20028;-69
2021/10/06 12:48:52;;;;;;;2.13;0.38;;;14.20;91.50;;;;;;5039457;28;20100;-69
2021/10/06 12:51:29;;;;;;;3.42;1.15;;;14.30;92.00;;;;;;5040113;28;20022;-66
2021/10/06 12:54:00;;;;;;;1.25;0.10;;;14.20;92.30;;;;;;5039197;28;20048;-66
2021/10/06 12:56:38;;;;;;;1.02;0.57;;;14.20;92.90;;;;;;5021497;28;20030;-66
2021/10/06 12:59:14;;;;;;;1.10;0.30;;;14.30;92.70;;;;;;5039712;28;20017;-66